Time;durP1;ratioP1;P1;durP2;ratioP2;P2;SDS_P1;SDS_P2;PMS_P1;PMS_P2;Temp;Humidity;BMP_temperature;BMP_pressure;BME280_temperature;BME280_humidity;BME280_pressure;Samples;Min_cycle;Max_cycle;Signal;HPM_P1;HPM_P2
2022/09/15 00:02:02;;;;;;;;;;;21.90;53.80;;;;;;5008087;28;19968;-73
2022/09/15 00:04:27;;;;;;;;;;;21.90;53.80;;;;;;5012172;28;19918;-73
2022/09/15 00:06:53;;;;;;;;;;;22.00;53.70;;;;;;5011313;28;19913;-73
2022/09/15 00:09:18;;;;;;;;;;;22.00;53.50;;;;;;5012272;28;19917;-73
2022/09/15 00:11:43;;;;;;;;;;;22.00;53.60;;;;;;5011089;28;19918;-74
2022/09/15 00:14:09;;;;;;;;;;;21.90;53.60;;;;;;5008322;28;19928;-72
2022/09/15 00:16:34;;;;;;;;;;;22.00;53.80;;;;;;5011387;28;19964;-73
2022/09/15 00:19:00;;;;;;;;;;;21.90;54.30;;;;;;5011965;28;19917;-74
2022/09/15 00:21:27;;;;;;;;;;;22.00;53.60;;;;;;5009622;28;20400;-73
2022/09/15 00:23:52;;;;;;;;;;;21.90;53.60;;;;;;5002169;28;19913;-74
2022/09/15 00:26:18;;;;;;;;;;;22.00;53.60;;;;;;5014080;28;19913;-73
2022/09/15 00:28:44;;;;;;;;;;;22.00;53.60;;;;;;5011164;28;20309;-74
2022/09/15 00:31:11;;;;;;;;;;;22.00;53.60;;;;;;5006024;28;19917;-74
2022/09/15 00:33:36;;;;;;;;;;;22.00;53.50;;;;;;5013252;28;19945;-73
2022/09/15 00:36:03;;;;;;;;;;;22.00;53.60;;;;;;5020184;28;20301;-73
2022/09/15 00:38:30;;;;;;;;;;;22.00;54.30;;;;;;5013619;28;20407;-73
2022/09/15 00:40:56;;;;;;;;;;;21.90;53.60;;;;;;5010360;28;20003;-74
2022/09/15 00:43:40;;;;;;;;;;;21.90;53.70;;;;;;5010887;28;20027;-73
2022/09/15 00:46:06;;;;;;;;;;;22.00;53.80;;;;;;5010450;28;20012;-73
2022/09/15 00:48:31;;;;;;;;;;;22.00;53.90;;;;;;5012706;28;20000;-74
2022/09/15 00:50:57;;;;;;;;;;;22.00;53.90;;;;;;5011295;28;19957;-73
2022/09/15 00:53:22;;;;;;;;;;;22.00;53.90;;;;;;5011392;28;19920;-73
2022/09/15 00:55:48;;;;;;;;;;;22.00;53.90;;;;;;5015134;28;19968;-73
2022/09/15 00:58:15;;;;;;;;;;;22.00;54.00;;;;;;4979913;28;19961;-74
2022/09/15 01:00:44;;;;;;;;;;;22.10;54.00;;;;;;5011488;28;19914;-73
2022/09/15 01:03:09;;;;;;;;;;;22.10;54.10;;;;;;5002980;28;20012;-73
2022/09/15 01:05:36;;;;;;;;;;;22.10;54.20;;;;;;4985021;28;20354;-73
2022/09/15 01:08:04;;;;;;;;;;;22.00;54.40;;;;;;4983012;28;20336;-73
2022/09/15 01:10:31;;;;;;;;;;;22.00;54.40;;;;;;4980170;28;19921;-73
2022/09/15 01:13:15;;;;;;;;;;;22.10;54.50;;;;;;5006335;28;20444;-73
2022/09/15 01:15:52;;;;;;;;;;;22.00;55.10;;;;;;4993235;28;19936;-73
2022/09/15 01:18:21;;;;;;;;;;;22.10;54.50;;;;;;4991275;28;19914;-73
2022/09/15 01:20:49;;;;;;;;;;;22.00;54.60;;;;;;4979937;28;19918;-74
2022/09/15 01:23:33;;;;;;;;;;;22.10;54.80;;;;;;4993767;28;20004;-72
2022/09/15 01:26:37;;;;;;;;;;;22.10;54.70;;;;;;4992105;28;19917;-73
2022/09/15 01:29:21;;;;;;;;;;;22.00;54.70;;;;;;4997627;28;19922;-73
2022/09/15 01:34:35;;;;;;;;;;;22.00;54.90;;;;;;4988138;28;19969;-73
2022/09/15 01:37:01;;;;;;;;;;;22.00;55.00;;;;;;4987260;28;19922;-73
2022/09/15 01:39:28;;;;;;;;;;;22.00;55.10;;;;;;4991714;28;19918;-73
2022/09/15 01:42:01;;;;;;;;;;;22.00;55.10;;;;;;4991090;28;19936;-73
2022/09/15 01:44:30;;;;;;;;;;;22.00;55.20;;;;;;4982639;28;19972;-73
2022/09/15 01:46:57;;;;;;;;;;;22.00;55.10;;;;;;4990777;28;20004;-73
2022/09/15 01:49:24;;;;;;;;;;;22.00;55.20;;;;;;4985695;28;20370;-73
2022/09/15 01:51:50;;;;;;;;;;;22.00;55.30;;;;;;5007487;28;19914;-73
2022/09/15 01:54:16;;;;;;;;;;;22.00;55.40;;;;;;4989814;28;19968;-74
2022/09/15 01:56:42;;;;;;;;;;;22.00;55.40;;;;;;5007912;28;20332;-73
2022/09/15 01:59:08;;;;;;;;;;;21.90;55.50;;;;;;4987019;28;19917;-73
2022/09/15 02:01:39;;;;;;;;;;;21.90;55.60;;;;;;4999747;28;19980;-73
2022/09/15 02:04:20;;;;;;;;;;;21.90;55.60;;;;;;4980563;28;20479;-73
2022/09/15 02:06:57;;;;;;;;;;;21.90;55.60;;;;;;4998273;28;19922;-72
2022/09/15 02:09:27;;;;;;;;;;;21.90;55.60;;;;;;4985855;28;19982;-73
2022/09/15 02:11:56;;;;;;;;;;;21.80;55.70;;;;;;4997629;28;20402;-73
2022/09/15 02:14:31;;;;;;;;;;;21.80;55.70;;;;;;4981891;28;19921;-72
2022/09/15 02:16:56;;;;;;;;;;;21.80;55.70;;;;;;4998424;28;19921;-73
2022/09/15 02:19:34;;;;;;;;;;;21.80;55.80;;;;;;4999069;28;20271;-73
2022/09/15 02:22:06;;;;;;;;;;;21.80;55.70;;;;;;4982931;28;19914;-73
2022/09/15 02:24:34;;;;;;;;;;;21.80;55.70;;;;;;4983812;28;19924;-73
2022/09/15 02:26:59;;;;;;;;;;;21.80;55.60;;;;;;4998267;28;19914;-73
2022/09/15 02:29:25;;;;;;;;;;;21.80;55.60;;;;;;4989936;28;20282;-74
2022/09/15 02:31:51;;;;;;;;;;;21.80;55.50;;;;;;4992666;28;19910;-73
2022/09/15 02:34:18;;;;;;;;;;;21.90;55.60;;;;;;4996232;28;19918;-73
2022/09/15 02:36:44;;;;;;;;;;;21.80;55.70;;;;;;4994606;28;20008;-73
2022/09/15 02:39:11;;;;;;;;;;;21.80;55.70;;;;;;4994782;28;20045;-73
2022/09/15 02:41:36;;;;;;;;;;;21.80;55.80;;;;;;4986950;28;19985;-74
2022/09/15 02:44:02;;;;;;;;;;;21.80;55.80;;;;;;5010314;28;20004;-73
2022/09/15 02:46:28;;;;;;;;;;;21.80;55.90;;;;;;4996080;28;19918;-73
2022/09/15 02:48:53;;;;;;;;;;;21.80;56.00;;;;;;4995559;28;19914;-73
2022/09/15 02:51:19;;;;;;;;;;;21.80;56.20;;;;;;4996187;28;19914;-73
2022/09/15 02:53:45;;;;;;;;;;;21.90;56.20;;;;;;4993195;28;19918;-74
2022/09/15 02:56:10;;;;;;;;;;;21.90;56.20;;;;;;4991738;28;20271;-73
2022/09/15 02:58:36;;;;;;;;;;;21.90;56.20;;;;;;4986602;28;19977;-74
2022/09/15 03:01:02;;;;;;;;;;;21.80;56.20;;;;;;4988527;28;19944;-73
2022/09/15 03:03:28;;;;;;;;;;;21.80;56.30;;;;;;5009118;28;20020;-73
2022/09/15 03:05:54;;;;;;;;;;;21.90;56.30;;;;;;4994931;28;19961;-75
2022/09/15 03:08:19;;;;;;;;;;;21.90;56.40;;;;;;4995599;28;20456;-73
2022/09/15 03:10:45;;;;;;;;;;;21.90;56.40;;;;;;4993425;28;20400;-74
2022/09/15 03:13:10;;;;;;;;;;;21.90;56.50;;;;;;4993054;28;19913;-74
2022/09/15 03:15:36;;;;;;;;;;;21.80;56.40;;;;;;4986972;28;19925;-74
2022/09/15 03:18:01;;;;;;;;;;;21.80;56.50;;;;;;4989617;28;19929;-74
2022/09/15 03:20:27;;;;;;;;;;;21.80;56.50;;;;;;4992526;28;19924;-74
2022/09/15 03:22:53;;;;;;;;;;;21.80;56.50;;;;;;4991311;28;19922;-74
2022/09/15 03:25:19;;;;;;;;;;;21.80;56.50;;;;;;4994359;28;19914;-74
2022/09/15 03:27:45;;;;;;;;;;;21.80;56.50;;;;;;4994122;28;19956;-74
2022/09/15 03:30:10;;;;;;;;;;;21.80;56.50;;;;;;4994021;28;20329;-73
2022/09/15 03:32:36;;;;;;;;;;;21.90;56.60;;;;;;5006654;28;19914;-73
2022/09/15 03:35:02;;;;;;;;;;;21.90;56.60;;;;;;4992444;28;19917;-73
2022/09/15 03:37:28;;;;;;;;;;;21.90;56.60;;;;;;4992923;28;20369;-74
2022/09/15 03:39:53;;;;;;;;;;;21.80;56.50;;;;;;4994286;28;19921;-74
2022/09/15 03:42:19;;;;;;;;;;;21.80;56.50;;;;;;4994077;28;19921;-74
2022/09/15 03:44:44;;;;;;;;;;;21.80;56.60;;;;;;4994452;28;19925;-74
2022/09/15 03:47:10;;;;;;;;;;;21.80;56.60;;;;;;5005982;28;20301;-74
2022/09/15 03:49:35;;;;;;;;;;;21.80;56.50;;;;;;4994986;28;20320;-73
2022/09/15 03:52:01;;;;;;;;;;;21.90;56.60;;;;;;4994753;28;20000;-74
2022/09/15 03:54:26;;;;;;;;;;;21.80;56.60;;;;;;4991624;28;19925;-74
2022/09/15 03:56:51;;;;;;;;;;;21.80;57.30;;;;;;4994830;28;19922;-73
2022/09/15 03:59:20;;;;;;;;;;;21.80;56.80;;;;;;4990736;28;19915;-74
2022/09/15 04:01:46;;;;;;;;;;;21.80;56.70;;;;;;5005131;28;19956;-74
2022/09/15 04:04:11;;;;;;;;;;;21.80;56.90;;;;;;4982352;28;19980;-74
2022/09/15 04:06:37;;;;;;;;;;;21.70;56.90;;;;;;4983629;28;19926;-74
2022/09/15 04:09:02;;;;;;;;;;;21.80;56.90;;;;;;4980408;28;19914;-74
2022/09/15 04:11:28;;;;;;;;;;;21.80;57.00;;;;;;4988600;28;20334;-74
2022/09/15 04:13:53;;;;;;;;;;;21.80;57.00;;;;;;4990720;28;19968;-74
2022/09/15 04:16:20;;;;;;;;;;;21.80;57.00;;;;;;4992821;28;20009;-73
2022/09/15 04:18:46;;;;;;;;;;;21.80;57.00;;;;;;4991133;28;19989;-75
2022/09/15 04:21:13;;;;;;;;;;;21.70;57.10;;;;;;4971778;28;20381;-74
2022/09/15 04:23:38;;;;;;;;;;;21.70;57.00;;;;;;4992378;28;19914;-74
2022/09/15 04:26:05;;;;;;;;;;;21.70;57.20;;;;;;4988914;28;19924;-74
2022/09/15 04:28:31;;;;;;;;;;;21.70;57.20;;;;;;4971219;28;19914;-73
2022/09/15 04:31:09;;;;;;;;;;;21.70;57.10;;;;;;4984074;28;20372;-74
2022/09/15 04:33:35;;;;;;;;;;;21.70;57.10;;;;;;4983223;28;19918;-73
2022/09/15 04:36:01;;;;;;;;;;;21.80;57.10;;;;;;4986537;28;19984;-74
2022/09/15 04:38:27;;;;;;;;;;;21.70;57.00;;;;;;4970496;28;19944;-73
2022/09/15 04:40:54;;;;;;;;;;;21.70;57.10;;;;;;4988417;28;20012;-73
2022/09/15 04:43:20;;;;;;;;;;;21.70;57.20;;;;;;4979208;28;19968;-74
2022/09/15 04:45:45;;;;;;;;;;;21.70;57.20;;;;;;4989646;28;19922;-72
2022/09/15 04:48:10;;;;;;;;;;;21.70;57.20;;;;;;4989986;28;19914;-74
2022/09/15 04:50:36;;;;;;;;;;;21.70;57.30;;;;;;4974776;28;19918;-73
2022/09/15 04:53:02;;;;;;;;;;;21.70;57.30;;;;;;4984947;28;19926;-74
2022/09/15 04:55:27;;;;;;;;;;;21.70;57.30;;;;;;4977241;28;19925;-73
2022/09/15 04:57:54;;;;;;;;;;;21.70;57.20;;;;;;4990250;28;19910;-73
2022/09/15 05:00:19;;;;;;;;;;;21.70;57.20;;;;;;4973758;28;19937;-72
2022/09/15 05:02:45;;;;;;;;;;;21.70;57.10;;;;;;4993988;28;19992;-74
2022/09/15 05:05:10;;;;;;;;;;;21.70;57.20;;;;;;4994531;28;19997;-73
2022/09/15 05:07:36;;;;;;;;;;;21.70;57.20;;;;;;5011048;28;20454;-73
2022/09/15 05:10:01;;;;;;;;;;;21.70;57.20;;;;;;5010140;28;19952;-74
2022/09/15 05:12:26;;;;;;;;;;;21.70;57.10;;;;;;4993578;28;19965;-74
2022/09/15 05:14:52;;;;;;;;;;;21.70;57.10;;;;;;4994940;28;20373;-73
2022/09/15 05:17:17;;;;;;;;;;;21.70;57.00;;;;;;5011580;28;19920;-74
2022/09/15 05:19:43;;;;;;;;;;;21.70;57.00;;;;;;5009555;28;19913;-74
2022/09/15 05:22:08;;;;;;;;;;;21.70;57.00;;;;;;5007903;28;19914;-73
2022/09/15 05:24:34;;;;;;;;;;;21.60;56.80;;;;;;5012889;28;19921;-74
2022/09/15 05:26:59;;;;;;;;;;;21.70;57.00;;;;;;5011472;28;19925;-74
2022/09/15 05:29:24;;;;;;;;;;;21.60;56.90;;;;;;5013284;28;19917;-73
2022/09/15 05:31:50;;;;;;;;;;;21.70;56.90;;;;;;5010083;28;20012;-73
2022/09/15 05:34:15;;;;;;;;;;;21.60;56.90;;;;;;4994416;28;19913;-74
2022/09/15 05:36:41;;;;;;;;;;;21.60;56.80;;;;;;5011613;28;20027;-73
2022/09/15 05:39:06;;;;;;;;;;;21.60;56.70;;;;;;5009771;28;19957;-73
2022/09/15 05:41:32;;;;;;;;;;;21.60;56.70;;;;;;5000644;28;19913;-73
2022/09/15 05:43:57;;;;;;;;;;;21.60;56.60;;;;;;5007444;28;19928;-73
2022/09/15 05:46:24;;;;;;;;;;;21.60;56.60;;;;;;5011601;28;19923;-74
2022/09/15 05:48:50;;;;;;;;;;;21.60;56.60;;;;;;5010895;28;20746;-74
2022/09/15 05:51:15;;;;;;;;;;;21.60;56.60;;;;;;5010611;28;19913;-73
2022/09/15 05:53:41;;;;;;;;;;;21.60;56.60;;;;;;5011253;28;19917;-73
2022/09/15 05:56:08;;;;;;;;;;;21.60;56.60;;;;;;5011968;28;19917;-73
2022/09/15 05:58:33;;;;;;;;;;;21.60;56.70;;;;;;5009121;28;19925;-73
2022/09/15 06:01:03;;;;;;;;;;;21.60;56.60;;;;;;5004108;28;19968;-73
2022/09/15 06:03:28;;;;;;;;;;;21.60;56.40;;;;;;5009153;28;19917;-74
2022/09/15 06:05:57;;;;;;;;;;;21.60;56.30;;;;;;5010803;28;20017;-72
2022/09/15 06:08:23;;;;;;;;;;;21.60;56.30;;;;;;5015792;28;19913;-73
2022/09/15 06:10:48;;;;;;;;;;;21.60;56.30;;;;;;5016316;28;20312;-73
2022/09/15 06:13:14;;;;;;;;;;;21.60;56.50;;;;;;5017053;28;19936;-73
2022/09/15 06:15:39;;;;;;;;;;;21.60;56.30;;;;;;5014053;28;19925;-73
2022/09/15 06:18:05;;;;;;;;;;;21.60;56.40;;;;;;5009892;28;20373;-72
2022/09/15 06:20:30;;;;;;;;;;;21.60;56.30;;;;;;5008491;28;19941;-74
2022/09/15 06:22:56;;;;;;;;;;;21.50;56.20;;;;;;5009944;28;20288;-73
2022/09/15 06:25:21;;;;;;;;;;;21.50;56.20;;;;;;5007767;28;19922;-73
2022/09/15 06:27:50;;;;;;;;;;;21.50;56.20;;;;;;5010145;28;19933;-73
2022/09/15 06:30:16;;;;;;;;;;;21.50;56.20;;;;;;5010040;28;20366;-74
2022/09/15 06:32:42;;;;;;;;;;;21.50;56.30;;;;;;4994739;28;19918;-73
2022/09/15 06:35:08;;;;;;;;;;;21.50;56.20;;;;;;5009254;28;19924;-73
2022/09/15 06:37:33;;;;;;;;;;;21.50;56.20;;;;;;4992094;28;19917;-73
2022/09/15 06:39:59;;;;;;;;;;;21.50;56.20;;;;;;5004015;28;19917;-73
2022/09/15 06:42:25;;;;;;;;;;;21.50;56.20;;;;;;5005771;28;19914;-73
2022/09/15 06:44:50;;;;;;;;;;;21.50;56.20;;;;;;5008206;28;20477;-73
2022/09/15 06:47:16;;;;;;;;;;;21.50;56.20;;;;;;5005175;28;19920;-73
2022/09/15 06:49:41;;;;;;;;;;;21.50;56.20;;;;;;5009994;28;19925;-74
2022/09/15 06:52:07;;;;;;;;;;;21.50;56.40;;;;;;5004913;28;19917;-73
2022/09/15 06:54:33;;;;;;;;;;;21.40;56.50;;;;;;5014260;28;19914;-72
2022/09/15 06:56:58;;;;;;;;;;;21.40;56.70;;;;;;5014515;28;20336;-74
2022/09/15 06:59:24;;;;;;;;;;;21.30;56.80;;;;;;5016561;28;19940;-73
2022/09/15 07:01:53;;;;;;;;;;;21.30;57.00;;;;;;5012675;28;19931;-73
2022/09/15 07:04:18;;;;;;;;;;;21.30;56.90;;;;;;5010773;28;19925;-74
2022/09/15 07:06:44;;;;;;;;;;;21.30;56.90;;;;;;5008514;28;19921;-72
2022/09/15 07:09:10;;;;;;;;;;;21.40;57.20;;;;;;5018180;28;19914;-73
2022/09/15 07:11:35;;;;;;;;;;;21.30;57.00;;;;;;5014729;28;19975;-73
2022/09/15 07:14:01;;;;;;;;;;;21.40;57.00;;;;;;5009812;28;19962;-73
2022/09/15 07:16:26;;;;;;;;;;;21.40;56.90;;;;;;5009044;28;19921;-74
2022/09/15 07:18:53;;;;;;;;;;;21.50;56.80;;;;;;5009555;28;20285;-74
2022/09/15 07:21:19;;;;;;;;;;;21.50;56.60;;;;;;5007968;28;19921;-73
2022/09/15 07:23:44;;;;;;;;;;;21.50;56.60;;;;;;5007447;28;19914;-74
2022/09/15 07:26:11;;;;;;;;;;;21.50;56.60;;;;;;5005134;28;20604;-73
2022/09/15 07:28:36;;;;;;;;;;;21.50;56.50;;;;;;5003242;28;19913;-74
2022/09/15 07:31:02;;;;;;;;;;;21.50;56.40;;;;;;5003736;28;20400;-73
2022/09/15 07:33:28;;;;;;;;;;;21.60;56.40;;;;;;5004957;28;20301;-73
2022/09/15 07:35:53;;;;;;;;;;;21.60;56.50;;;;;;4987557;28;19914;-73
2022/09/15 07:38:19;;;;;;;;;;;21.50;56.70;;;;;;5002958;28;19914;-74
2022/09/15 07:40:45;;;;;;;;;;;21.50;56.30;;;;;;5009525;28;19914;-74
2022/09/15 07:43:10;;;;;;;;;;;21.60;56.40;;;;;;5003860;28;19918;-74
2022/09/15 07:45:36;;;;;;;;;;;21.60;56.30;;;;;;4989291;28;19921;-73
2022/09/15 07:48:02;;;;;;;;;;;21.50;56.20;;;;;;5003499;28;19918;-74
2022/09/15 07:50:27;;;;;;;;;;;21.50;56.30;;;;;;4991886;28;19918;-74
2022/09/15 07:52:56;;;;;;;;;;;21.50;56.20;;;;;;4999387;28;19913;-73
2022/09/15 07:55:21;;;;;;;;;;;21.50;56.20;;;;;;5004755;28;19963;-74
2022/09/15 07:57:47;;;;;;;;;;;21.50;56.30;;;;;;5004754;28;20440;-74
2022/09/15 08:00:14;;;;;;;;;;;21.50;56.20;;;;;;4999048;28;20285;-73
2022/09/15 08:02:39;;;;;;;;;;;21.50;56.30;;;;;;4989405;28;19913;-73
2022/09/15 08:05:05;;;;;;;;;;;21.50;56.20;;;;;;5008357;28;19932;-74
2022/09/15 08:07:30;;;;;;;;;;;21.50;56.20;;;;;;5006559;28;19989;-73
2022/09/15 08:09:56;;;;;;;;;;;21.50;56.20;;;;;;5002230;28;19917;-74
2022/09/15 08:12:21;;;;;;;;;;;21.50;56.30;;;;;;5005699;28;19913;-73
2022/09/15 08:14:47;;;;;;;;;;;21.50;56.30;;;;;;5002638;28;19918;-73
2022/09/15 08:17:12;;;;;;;;;;;21.50;56.30;;;;;;4987299;28;20372;-73
2022/09/15 08:19:38;;;;;;;;;;;21.50;56.20;;;;;;5006011;28;19909;-73
2022/09/15 08:22:03;;;;;;;;;;;21.50;56.20;;;;;;5005879;28;19920;-73
2022/09/15 08:24:29;;;;;;;;;;;21.60;56.30;;;;;;5007863;28;19968;-74
2022/09/15 08:26:55;;;;;;;;;;;21.60;56.30;;;;;;5006882;28;20401;-73
2022/09/15 08:29:20;;;;;;;;;;;21.60;56.30;;;;;;5001997;28;19961;-73
2022/09/15 08:31:46;;;;;;;;;;;21.60;56.30;;;;;;5006097;28;20381;-74
2022/09/15 08:34:12;;;;;;;;;;;21.60;56.30;;;;;;5002929;28;19922;-73
2022/09/15 08:36:38;;;;;;;;;;;21.60;56.30;;;;;;5004738;28;20251;-74
2022/09/15 08:39:03;;;;;;;;;;;21.60;56.10;;;;;;5003820;28;19920;-73
2022/09/15 08:41:33;;;;;;;;;;;21.60;56.10;;;;;;5003937;28;19979;-74
2022/09/15 08:43:58;;;;;;;;;;;21.60;56.30;;;;;;5007169;28;19914;-73
2022/09/15 08:46:30;;;;;;;;;;;21.60;56.30;;;;;;5004442;28;19920;-73
2022/09/15 08:49:11;;;;;;;;;;;21.60;56.10;;;;;;5001063;28;19918;-76
2022/09/15 08:51:41;;;;;;;;;;;21.60;56.10;;;;;;5018922;28;20344;-73
2022/09/15 08:54:09;;;;;;;;;;;21.60;56.20;;;;;;5011237;28;19963;-74
2022/09/15 08:56:34;;;;;;;;;;;21.50;56.10;;;;;;4995102;28;19956;-73
2022/09/15 08:58:59;;;;;;;;;;;21.50;56.20;;;;;;5014066;28;19975;-74
2022/09/15 09:01:25;;;;;;;;;;;21.50;56.20;;;;;;5007291;28;19921;-74
2022/09/15 09:03:53;;;;;;;;;;;21.50;56.10;;;;;;5004142;28;19959;-72
2022/09/15 09:06:37;;;;;;;;;;;21.50;56.20;;;;;;5009690;28;20027;-73
2022/09/15 09:09:02;;;;;;;;;;;21.40;56.10;;;;;;5001316;28;19953;-73
2022/09/15 09:12:00;;;;;;;;;;;21.30;56.50;;;;;;5009564;28;19964;-73
2022/09/15 09:14:43;;;;;;;;;;;21.20;56.70;;;;;;5006545;28;19937;-72
2022/09/15 09:17:27;;;;;;;;;;;21.10;56.90;;;;;;5012446;28;20049;-72
2022/09/15 09:20:09;;;;;;;;;;;21.10;57.00;;;;;;5011080;28;20016;-72
2022/09/15 09:22:35;;;;;;;;;;;21.10;56.90;;;;;;5008251;28;20028;-73
2022/09/15 09:25:01;;;;;;;;;;;21.10;56.80;;;;;;4993732;28;20017;-72
2022/09/15 09:27:30;;;;;;;;;;;21.10;56.80;;;;;;5009493;28;19914;-74
2022/09/15 09:30:00;;;;;;;;;;;21.10;56.70;;;;;;5004094;28;19928;-73
2022/09/15 09:32:30;;;;;;;;;;;21.10;56.60;;;;;;5013552;28;19956;-73
2022/09/15 09:34:58;;;;;;;;;;;21.10;56.80;;;;;;5006020;28;19921;-72
2022/09/15 09:37:23;;;;;;;;;;;21.00;56.80;;;;;;5004639;28;19913;-73
2022/09/15 09:39:49;;;;;;;;;;;21.00;57.00;;;;;;5005894;28;20356;-73
2022/09/15 09:42:15;;;;;;;;;;;21.00;57.00;;;;;;5003758;28;19918;-72
2022/09/15 09:44:40;;;;;;;;;;;21.00;57.00;;;;;;4993367;28;20388;-73
2022/09/15 09:47:06;;;;;;;;;;;21.00;57.10;;;;;;5006995;28;19918;-73
2022/09/15 09:49:50;;;;;;;;;;;21.00;57.00;;;;;;5009788;28;19987;-74
2022/09/15 09:52:30;;;;;;;;;;;21.00;56.80;;;;;;5009246;28;19914;-74
2022/09/15 09:55:16;;;;;;;;;;;21.10;56.90;;;;;;5006895;28;20000;-74
2022/09/15 09:57:42;;;;;;;;;;;21.20;56.80;;;;;;5000092;28;19918;-74
2022/09/15 10:00:36;;;;;;;;;;;21.20;56.90;;;;;;5003766;28;19929;-73
2022/09/15 10:03:15;;;;;;;;;;;21.20;56.70;;;;;;5006534;28;19940;-73
2022/09/15 10:05:41;;;;;;;;;;;21.30;56.70;;;;;;5009301;28;20461;-75
2022/09/15 10:08:13;;;;;;;;;;;21.30;56.60;;;;;;4985427;28;19917;-73
2022/09/15 10:10:38;;;;;;;;;;;21.40;56.40;;;;;;5011119;28;19913;-73
2022/09/15 10:13:04;;;;;;;;;;;21.30;56.60;;;;;;5010209;28;19963;-73
2022/09/15 10:15:33;;;;;;;;;;;21.30;56.70;;;;;;5009324;28;19917;-73
2022/09/15 10:17:58;;;;;;;;;;;21.40;56.60;;;;;;5010896;28;19914;-73
2022/09/15 10:20:27;;;;;;;;;;;21.30;56.60;;;;;;5012453;28;19910;-73
2022/09/15 10:23:02;;;;;;;;;;;21.40;56.50;;;;;;5013016;28;19913;-73
2022/09/15 10:25:29;;;;;;;;;;;21.40;56.70;;;;;;5011794;28;19917;-74
2022/09/15 10:28:13;;;;;;;;;;;21.30;56.70;;;;;;5011137;28;19956;-74
2022/09/15 10:30:39;;;;;;;;;;;21.40;56.60;;;;;;5011500;28;19980;-73
2022/09/15 10:33:18;;;;;;;;;;;21.50;56.40;;;;;;5011946;28;19909;-72
2022/09/15 10:35:43;;;;;;;;;;;21.40;56.40;;;;;;5010121;28;20322;-73
2022/09/15 10:38:09;;;;;;;;;;;21.50;56.30;;;;;;5006493;28;19921;-72
2022/09/15 10:40:34;;;;;;;;;;;21.50;56.20;;;;;;5007558;28;19995;-73
2022/09/15 10:43:23;;;;;;;;;;;21.50;56.20;;;;;;5012753;28;19917;-72
2022/09/15 10:45:49;;;;;;;;;;;21.50;56.20;;;;;;5002564;28;19918;-73
2022/09/15 10:48:24;;;;;;;;;;;21.50;56.20;;;;;;5008459;28;19913;-73
2022/09/15 10:50:54;;;;;;;;;;;21.50;56.20;;;;;;5006387;28;19914;-72
2022/09/15 10:53:40;;;;;;;;;;;21.50;56.20;;;;;;5012780;28;19929;-73
2022/09/15 10:56:12;;;;;;;;;;;21.40;56.10;;;;;;4996552;28;20075;-73
2022/09/15 10:58:54;;;;;;;;;;;21.50;56.20;;;;;;5011921;28;20365;-73
2022/09/15 11:01:23;;;;;;;;;;;21.50;56.20;;;;;;5015217;28;19920;-73
2022/09/15 11:03:57;;;;;;;;;;;21.40;56.10;;;;;;5014567;28;20008;-72
2022/09/15 11:06:37;;;;;;;;;;;21.40;56.10;;;;;;5012683;28;19922;-72
2022/09/15 11:09:18;;;;;;;;;;;21.40;56.10;;;;;;5014742;28;19959;-72
2022/09/15 11:11:43;;;;;;;;;;;21.40;56.80;;;;;;5012171;28;20277;-73
2022/09/15 11:14:28;;;;;;;;;;;21.40;56.20;;;;;;5014493;28;19910;-72
2022/09/15 11:17:09;;;;;;;;;;;21.40;56.10;;;;;;5015392;28;20012;-72
2022/09/15 11:19:41;;;;;;;;;;;21.50;55.90;;;;;;5013374;28;19917;-72
2022/09/15 11:22:17;;;;;;;;;;;21.50;55.70;;;;;;5011928;28;19924;-72
2022/09/15 11:24:59;;;;;;;;;;;21.50;55.50;;;;;;5015255;28;20377;-73
2022/09/15 11:27:26;;;;;;;;;;;21.50;55.30;;;;;;4994594;28;20385;-73
2022/09/15 11:30:00;;;;;;;;;;;21.50;55.40;;;;;;5013421;28;19917;-73
2022/09/15 11:32:38;;;;;;;;;;;21.50;55.40;;;;;;5010368;28;19920;-72
2022/09/15 11:35:25;;;;;;;;;;;21.50;54.90;;;;;;5011910;28;20387;-73
2022/09/15 11:37:50;;;;;;;;;;;21.50;54.90;;;;;;5014358;28;19918;-74
2022/09/15 11:40:17;;;;;;;;;;;21.60;54.90;;;;;;5011307;28;20063;-72
2022/09/15 11:42:44;;;;;;;;;;;21.70;54.80;;;;;;5009615;28;19959;-74
2022/09/15 11:45:21;;;;;;;;;;;21.70;54.50;;;;;;5013227;28;19972;-73
2022/09/15 11:47:48;;;;;;;;;;;21.70;54.40;;;;;;5020379;28;19922;-72
2022/09/15 11:50:20;;;;;;;;;;;21.70;54.30;;;;;;5001174;28;19914;-73
2022/09/15 11:52:49;;;;;;;;;;;21.70;54.60;;;;;;5011382;28;20400;-73
2022/09/15 11:55:20;;;;;;;;;;;21.70;54.70;;;;;;5022661;28;19921;-73
2022/09/15 11:58:12;;;;;;;;;;;21.60;54.90;;;;;;5003062;28;19917;-73
2022/09/15 12:00:42;;;;;;;;;;;21.60;55.10;;;;;;5008884;28;20431;-72
2022/09/15 12:03:12;;;;;;;;;;;21.60;55.50;;;;;;4997725;28;19948;-72
2022/09/15 12:05:57;;;;;;;;;;;21.60;55.60;;;;;;5012286;28;19929;-72
2022/09/15 12:08:26;;;;;;;;;;;21.60;55.70;;;;;;5012275;28;20013;-71
2022/09/15 12:10:53;;;;;;;;;;;21.60;55.80;;;;;;5006434;28;19917;-72
2022/09/15 12:13:19;;;;;;;;;;;21.60;56.10;;;;;;5013532;28;19916;-72
2022/09/15 12:15:45;;;;;;;;;;;21.60;55.70;;;;;;5014688;28;19968;-73
2022/09/15 12:18:13;;;;;;;;;;;21.60;55.50;;;;;;5013797;28;19913;-73
2022/09/15 12:20:43;;;;;;;;;;;21.70;55.40;;;;;;5005017;28;19921;-72
2022/09/15 12:23:09;;;;;;;;;;;21.70;55.20;;;;;;5013311;28;19914;-73
2022/09/15 12:25:39;;;;;;;;;;;21.80;55.20;;;;;;5013506;28;19917;-73
2022/09/15 12:28:20;;;;;;;;;;;21.70;55.10;;;;;;4991527;28;19920;-72
2022/09/15 12:30:48;;;;;;;;;;;21.70;55.30;;;;;;4995616;28;22359;-73
2022/09/15 12:33:53;;;;;;;;;;;21.70;55.20;;;;;;5008033;28;19913;-73
2022/09/15 12:36:39;;;;;;;;;;;21.70;55.10;;;;;;4986961;28;19914;-73
2022/09/15 12:39:16;;;;;;;;;;;21.60;55.00;;;;;;4978347;28;19913;-73
2022/09/15 12:42:05;;;;;;;;;;;21.70;55.00;;;;;;5004327;28;19972;-72
2022/09/15 12:44:39;;;;;;;;;;;21.60;55.10;;;;;;4995467;28;20382;-73
2022/09/15 12:47:06;;;;;;;;;;;21.50;55.40;;;;;;5008900;28;19932;-72
2022/09/15 12:49:32;;;;;;;;;;;21.50;55.50;;;;;;4994855;28;19922;-73
2022/09/15 12:51:58;;;;;;;;;;;21.50;55.40;;;;;;5012760;28;20285;-73
2022/09/15 12:54:28;;;;;;;;;;;21.50;55.40;;;;;;5016938;28;19914;-72
2022/09/15 12:56:54;;;;;;;;;;;21.60;55.20;;;;;;5012599;28;19913;-73
2022/09/15 12:59:21;;;;;;;;;;;21.50;55.20;;;;;;5013769;28;19916;-72
2022/09/15 13:01:50;;;;;;;;;;;21.60;55.30;;;;;;5013592;28;20296;-72
2022/09/15 13:04:34;;;;;;;;;;;21.60;55.30;;;;;;5014828;28;19921;-72
2022/09/15 13:07:14;;;;;;;;;;;21.70;54.80;;;;;;5013219;28;20025;-72
2022/09/15 13:09:43;;;;;;;;;;;21.80;54.40;;;;;;5014283;28;19909;-72
2022/09/15 13:12:09;;;;;;;;;;;21.80;54.50;;;;;;5013573;28;19917;-72
2022/09/15 13:14:35;;;;;;;;;;;21.70;54.60;;;;;;5012444;28;20305;-73
2022/09/15 13:17:05;;;;;;;;;;;21.70;55.50;;;;;;5012466;28;20341;-72
2022/09/15 13:19:34;;;;;;;;;;;21.70;54.80;;;;;;5013668;28;19909;-72
2022/09/15 13:22:02;;;;;;;;;;;21.70;54.80;;;;;;5010140;28;19909;-73
2022/09/15 13:24:45;;;;;;;;;;;21.70;54.80;;;;;;5013076;28;19914;-72
2022/09/15 13:27:11;;;;;;;;;;;21.70;54.60;;;;;;5014564;28;19961;-73
2022/09/15 13:29:43;;;;;;;;;;;21.70;54.50;;;;;;5012218;28;20332;-73
2022/09/15 13:32:18;;;;;;;;;;;21.70;54.50;;;;;;5013239;28;19913;-73
2022/09/15 13:34:48;;;;;;;;;;;21.70;54.60;;;;;;5013145;28;19913;-72
2022/09/15 13:37:20;;;;;;;;;;;21.70;54.50;;;;;;5014281;28;19909;-70
2022/09/15 13:40:15;;;;;;;;;;;21.70;54.20;;;;;;5023124;28;19910;-72
2022/09/15 13:42:43;;;;;;;;;;;21.80;53.70;;;;;;4977293;28;20054;-73
2022/09/15 13:45:15;;;;;;;;;;;21.80;53.60;;;;;;5013717;28;19972;-72
2022/09/15 13:47:41;;;;;;;;;;;21.80;53.50;;;;;;5012105;28;20293;-73
2022/09/15 13:50:13;;;;;;;;;;;21.80;53.70;;;;;;5011772;28;19972;-73
2022/09/15 13:52:54;;;;;;;;;;;21.80;53.70;;;;;;5014013;28;19913;-74
2022/09/15 13:55:25;;;;;;;;;;;21.80;54.00;;;;;;4993362;28;20009;-73
2022/09/15 13:57:52;;;;;;;;;;;21.80;54.10;;;;;;5011259;28;19910;-73
2022/09/15 14:00:18;;;;;;;;;;;21.80;54.10;;;;;;5002534;28;20297;-73
2022/09/15 14:02:46;;;;;;;;;;;21.80;54.20;;;;;;4999352;28;19925;-72
2022/09/15 14:05:12;;;;;;;;;;;21.80;54.30;;;;;;5004976;28;20281;-73
2022/09/15 14:07:37;;;;;;;;;;;21.80;54.40;;;;;;5010735;28;19917;-73
2022/09/15 14:10:03;;;;;;;;;;;21.80;54.50;;;;;;5009606;28;20032;-73
2022/09/15 14:12:28;;;;;;;;;;;21.80;54.50;;;;;;4990387;28;19970;-73
2022/09/15 14:14:54;;;;;;;;;;;21.80;54.40;;;;;;5011579;28;19952;-74
2022/09/15 14:17:23;;;;;;;;;;;21.80;54.50;;;;;;4988728;28;19913;-74
2022/09/15 14:19:50;;;;;;;;;;;21.80;54.50;;;;;;4995639;28;20391;-73
2022/09/15 14:22:29;;;;;;;;;;;21.80;54.50;;;;;;5009569;28;19936;-73
2022/09/15 14:24:55;;;;;;;;;;;21.80;54.40;;;;;;4990498;28;20040;-74
2022/09/15 14:27:27;;;;;;;;;;;21.80;54.50;;;;;;5010089;28;20001;-73
2022/09/15 14:29:59;;;;;;;;;;;21.80;54.40;;;;;;5014693;28;19917;-72